sensor_id;sensor_type;location;lat;lon;timestamp;temperature;humidity
14585;DHT22;7379;51.506;11.876;2022-09-01T00:00:43;19.20;53.80
14585;DHT22;7379;51.506;11.876;2022-09-01T00:03:12;19.20;53.80
14585;DHT22;7379;51.506;11.876;2022-09-01T00:05:39;19.20;53.80
14585;DHT22;7379;51.506;11.876;2022-09-01T00:08:05;19.10;53.80
14585;DHT22;7379;51.506;11.876;2022-09-01T00:10:32;19.10;53.80
14585;DHT22;7379;51.506;11.876;2022-09-01T00:12:59;19.10;53.90
14585;DHT22;7379;51.506;11.876;2022-09-01T00:15:27;19.10;53.90
14585;DHT22;7379;51.506;11.876;2022-09-01T00:17:55;19.10;53.90
14585;DHT22;7379;51.506;11.876;2022-09-01T00:20:21;19.10;53.90
14585;DHT22;7379;51.506;11.876;2022-09-01T00:22:48;19.10;54.00
14585;DHT22;7379;51.506;11.876;2022-09-01T00:25:15;19.10;54.00
14585;DHT22;7379;51.506;11.876;2022-09-01T00:27:44;19.10;54.00
14585;DHT22;7379;51.506;11.876;2022-09-01T00:30:12;19.10;54.00
14585;DHT22;7379;51.506;11.876;2022-09-01T00:32:39;19.10;54.10
14585;DHT22;7379;51.506;11.876;2022-09-01T00:35:12;19.10;54.10
14585;DHT22;7379;51.506;11.876;2022-09-01T00:37:39;19.10;54.10
14585;DHT22;7379;51.506;11.876;2022-09-01T00:40:07;19.00;54.10
14585;DHT22;7379;51.506;11.876;2022-09-01T00:42:36;19.00;54.10
14585;DHT22;7379;51.506;11.876;2022-09-01T00:45:05;19.00;54.10
14585;DHT22;7379;51.506;11.876;2022-09-01T00:47:32;19.00;54.30
14585;DHT22;7379;51.506;11.876;2022-09-01T00:50:01;19.00;54.20
14585;DHT22;7379;51.506;11.876;2022-09-01T00:52:32;19.00;54.20
14585;DHT22;7379;51.506;11.876;2022-09-01T00:55:03;19.00;54.30
14585;DHT22;7379;51.506;11.876;2022-09-01T00:57:32;19.00;54.30
14585;DHT22;7379;51.506;11.876;2022-09-01T01:00:04;18.90;54.30
14585;DHT22;7379;51.506;11.876;2022-09-01T01:02:31;18.90;54.30
14585;DHT22;7379;51.506;11.876;2022-09-01T01:04:58;18.90;54.30
14585;DHT22;7379;51.506;11.876;2022-09-01T01:07:26;18.90;54.30
14585;DHT22;7379;51.506;11.876;2022-09-01T01:09:55;18.90;54.40
14585;DHT22;7379;51.506;11.876;2022-09-01T01:12:22;18.90;54.40
14585;DHT22;7379;51.506;11.876;2022-09-01T01:14:52;18.90;54.40
14585;DHT22;7379;51.506;11.876;2022-09-01T01:17:21;18.90;54.50
14585;DHT22;7379;51.506;11.876;2022-09-01T01:19:51;18.90;54.50
14585;DHT22;7379;51.506;11.876;2022-09-01T01:22:42;18.90;54.50
14585;DHT22;7379;51.506;11.876;2022-09-01T01:25:33;18.90;54.50
14585;DHT22;7379;51.506;11.876;2022-09-01T01:28:09;18.80;54.50
14585;DHT22;7379;51.506;11.876;2022-09-01T01:30:38;18.90;54.60
14585;DHT22;7379;51.506;11.876;2022-09-01T01:33:06;18.80;54.60
14585;DHT22;7379;51.506;11.876;2022-09-01T01:35:33;18.80;54.60
14585;DHT22;7379;51.506;11.876;2022-09-01T01:38:01;18.80;54.60
14585;DHT22;7379;51.506;11.876;2022-09-01T01:40:34;18.80;54.60
14585;DHT22;7379;51.506;11.876;2022-09-01T01:43:02;18.80;54.70
14585;DHT22;7379;51.506;11.876;2022-09-01T01:45:30;18.80;54.70
14585;DHT22;7379;51.506;11.876;2022-09-01T01:47:57;18.80;54.70
14585;DHT22;7379;51.506;11.876;2022-09-01T01:50:32;18.70;54.70
14585;DHT22;7379;51.506;11.876;2022-09-01T01:53:00;18.70;54.70
14585;DHT22;7379;51.506;11.876;2022-09-01T01:55:28;18.80;54.80
14585;DHT22;7379;51.506;11.876;2022-09-01T01:57:57;18.70;54.70
14585;DHT22;7379;51.506;11.876;2022-09-01T02:00:26;18.70;54.80
14585;DHT22;7379;51.506;11.876;2022-09-01T02:02:53;18.70;54.80
14585;DHT22;7379;51.506;11.876;2022-09-01T02:05:22;18.70;54.80
14585;DHT22;7379;51.506;11.876;2022-09-01T02:07:52;18.70;54.90
14585;DHT22;7379;51.506;11.876;2022-09-01T02:10:22;18.70;54.90
14585;DHT22;7379;51.506;11.876;2022-09-01T02:12:49;18.70;54.90
14585;DHT22;7379;51.506;11.876;2022-09-01T02:15:18;18.60;54.80
14585;DHT22;7379;51.506;11.876;2022-09-01T02:17:45;18.60;54.90
14585;DHT22;7379;51.506;11.876;2022-09-01T02:20:13;18.60;54.90
14585;DHT22;7379;51.506;11.876;2022-09-01T02:22:41;18.60;55.00
14585;DHT22;7379;51.506;11.876;2022-09-01T02:25:09;18.60;54.90
14585;DHT22;7379;51.506;11.876;2022-09-01T02:27:36;18.60;55.00
14585;DHT22;7379;51.506;11.876;2022-09-01T02:30:05;18.50;54.90
14585;DHT22;7379;51.506;11.876;2022-09-01T02:32:36;18.60;55.00
14585;DHT22;7379;51.506;11.876;2022-09-01T02:35:05;18.60;55.00
14585;DHT22;7379;51.506;11.876;2022-09-01T02:37:35;18.60;55.10
14585;DHT22;7379;51.506;11.876;2022-09-01T02:40:06;18.50;55.00
14585;DHT22;7379;51.506;11.876;2022-09-01T02:42:35;18.50;55.00
14585;DHT22;7379;51.506;11.876;2022-09-01T02:45:06;18.50;55.10
14585;DHT22;7379;51.506;11.876;2022-09-01T02:47:42;18.50;55.10
14585;DHT22;7379;51.506;11.876;2022-09-01T02:50:11;18.50;55.00
14585;DHT22;7379;51.506;11.876;2022-09-01T02:52:44;18.50;55.10
14585;DHT22;7379;51.506;11.876;2022-09-01T02:55:14;18.40;55.60
14585;DHT22;7379;51.506;11.876;2022-09-01T02:57:47;18.40;55.00
14585;DHT22;7379;51.506;11.876;2022-09-01T03:00:16;18.40;55.00
14585;DHT22;7379;51.506;11.876;2022-09-01T03:02:50;18.40;55.10
14585;DHT22;7379;51.506;11.876;2022-09-01T03:05:18;18.40;55.10
14585;DHT22;7379;51.506;11.876;2022-09-01T03:07:51;18.40;55.10
14585;DHT22;7379;51.506;11.876;2022-09-01T03:10:22;18.40;55.10
14585;DHT22;7379;51.506;11.876;2022-09-01T03:12:52;18.40;55.10
14585;DHT22;7379;51.506;11.876;2022-09-01T03:15:19;18.30;55.10
14585;DHT22;7379;51.506;11.876;2022-09-01T03:17:46;18.30;55.10
14585;DHT22;7379;51.506;11.876;2022-09-01T03:20:15;18.30;55.20
14585;DHT22;7379;51.506;11.876;2022-09-01T03:22:46;18.30;55.10
14585;DHT22;7379;51.506;11.876;2022-09-01T03:25:13;18.30;55.20
14585;DHT22;7379;51.506;11.876;2022-09-01T03:27:40;18.30;55.20
14585;DHT22;7379;51.506;11.876;2022-09-01T03:30:07;18.30;55.20
14585;DHT22;7379;51.506;11.876;2022-09-01T03:32:34;18.20;55.20
14585;DHT22;7379;51.506;11.876;2022-09-01T03:35:01;18.20;55.20
14585;DHT22;7379;51.506;11.876;2022-09-01T03:37:29;18.20;55.20
14585;DHT22;7379;51.506;11.876;2022-09-01T03:39:56;18.20;55.20
14585;DHT22;7379;51.506;11.876;2022-09-01T03:42:24;18.20;55.20
14585;DHT22;7379;51.506;11.876;2022-09-01T03:44:54;18.20;55.30
14585;DHT22;7379;51.506;11.876;2022-09-01T03:47:21;18.20;55.30
14585;DHT22;7379;51.506;11.876;2022-09-01T03:49:49;18.20;55.30
14585;DHT22;7379;51.506;11.876;2022-09-01T03:52:16;18.20;55.40
14585;DHT22;7379;51.506;11.876;2022-09-01T03:54:44;18.10;55.30
14585;DHT22;7379;51.506;11.876;2022-09-01T03:57:11;18.10;55.30
14585;DHT22;7379;51.506;11.876;2022-09-01T03:59:38;18.10;55.40
14585;DHT22;7379;51.506;11.876;2022-09-01T04:02:07;18.10;55.40
14585;DHT22;7379;51.506;11.876;2022-09-01T04:04:35;18.10;55.40
14585;DHT22;7379;51.506;11.876;2022-09-01T04:07:02;18.10;55.40
14585;DHT22;7379;51.506;11.876;2022-09-01T04:09:29;18.00;55.30
14585;DHT22;7379;51.506;11.876;2022-09-01T04:11:59;18.00;55.40
14585;DHT22;7379;51.506;11.876;2022-09-01T04:14:26;18.00;55.40
14585;DHT22;7379;51.506;11.876;2022-09-01T04:16:52;18.00;55.40
14585;DHT22;7379;51.506;11.876;2022-09-01T04:19:37;18.00;55.40
14585;DHT22;7379;51.506;11.876;2022-09-01T04:22:04;18.00;55.50
14585;DHT22;7379;51.506;11.876;2022-09-01T04:24:32;18.00;55.50
14585;DHT22;7379;51.506;11.876;2022-09-01T04:27:01;17.90;55.40
14585;DHT22;7379;51.506;11.876;2022-09-01T04:29:29;17.90;55.50
14585;DHT22;7379;51.506;11.876;2022-09-01T04:32:00;17.90;55.50
14585;DHT22;7379;51.506;11.876;2022-09-01T04:34:29;17.90;55.50
14585;DHT22;7379;51.506;11.876;2022-09-01T04:37:02;17.90;55.60
14585;DHT22;7379;51.506;11.876;2022-09-01T04:39:30;17.90;55.60
14585;DHT22;7379;51.506;11.876;2022-09-01T04:41:57;17.90;55.60
14585;DHT22;7379;51.506;11.876;2022-09-01T04:44:25;17.90;55.70
14585;DHT22;7379;51.506;11.876;2022-09-01T04:46:52;17.90;55.70
14585;DHT22;7379;51.506;11.876;2022-09-01T04:49:19;17.80;55.60
14585;DHT22;7379;51.506;11.876;2022-09-01T04:51:50;17.80;55.70
14585;DHT22;7379;51.506;11.876;2022-09-01T04:54:17;17.80;55.70
14585;DHT22;7379;51.506;11.876;2022-09-01T04:56:47;17.80;55.70
14585;DHT22;7379;51.506;11.876;2022-09-01T04:59:17;17.80;55.80
14585;DHT22;7379;51.506;11.876;2022-09-01T05:01:46;17.80;55.80
14585;DHT22;7379;51.506;11.876;2022-09-01T05:04:16;17.80;55.90
14585;DHT22;7379;51.506;11.876;2022-09-01T05:06:44;17.80;55.90
14585;DHT22;7379;51.506;11.876;2022-09-01T05:09:12;17.80;55.90
14585;DHT22;7379;51.506;11.876;2022-09-01T05:11:41;17.70;55.80
14585;DHT22;7379;51.506;11.876;2022-09-01T05:14:10;17.70;55.90
14585;DHT22;7379;51.506;11.876;2022-09-01T05:16:37;17.70;56.00
14585;DHT22;7379;51.506;11.876;2022-09-01T05:19:07;17.70;56.00
14585;DHT22;7379;51.506;11.876;2022-09-01T05:21:40;17.70;56.00
14585;DHT22;7379;51.506;11.876;2022-09-01T05:24:10;17.70;56.10
14585;DHT22;7379;51.506;11.876;2022-09-01T05:26:39;17.60;56.00
14585;DHT22;7379;51.506;11.876;2022-09-01T05:29:09;17.60;56.00
14585;DHT22;7379;51.506;11.876;2022-09-01T05:31:39;17.60;56.10
14585;DHT22;7379;51.506;11.876;2022-09-01T05:34:08;17.60;56.20
14585;DHT22;7379;51.506;11.876;2022-09-01T05:36:37;17.60;56.20
14585;DHT22;7379;51.506;11.876;2022-09-01T05:39:07;17.60;56.30
14585;DHT22;7379;51.506;11.876;2022-09-01T05:41:36;17.60;56.30
14585;DHT22;7379;51.506;11.876;2022-09-01T05:44:05;17.60;56.40
14585;DHT22;7379;51.506;11.876;2022-09-01T05:46:33;17.60;56.40
14585;DHT22;7379;51.506;11.876;2022-09-01T05:49:02;17.60;56.50
14585;DHT22;7379;51.506;11.876;2022-09-01T05:51:33;17.60;56.50
14585;DHT22;7379;51.506;11.876;2022-09-01T05:54:01;17.60;56.60
14585;DHT22;7379;51.506;11.876;2022-09-01T05:56:30;17.50;56.50
14585;DHT22;7379;51.506;11.876;2022-09-01T05:58:59;17.50;56.50
14585;DHT22;7379;51.506;11.876;2022-09-01T06:01:27;17.50;57.20
14585;DHT22;7379;51.506;11.876;2022-09-01T06:03:57;17.50;56.60
14585;DHT22;7379;51.506;11.876;2022-09-01T06:06:26;17.50;56.60
14585;DHT22;7379;51.506;11.876;2022-09-01T06:08:56;17.50;56.70
14585;DHT22;7379;51.506;11.876;2022-09-01T06:11:24;17.50;56.70
14585;DHT22;7379;51.506;11.876;2022-09-01T06:13:52;17.50;56.70
14585;DHT22;7379;51.506;11.876;2022-09-01T06:16:23;17.50;56.70
14585;DHT22;7379;51.506;11.876;2022-09-01T06:18:50;17.50;56.80
14585;DHT22;7379;51.506;11.876;2022-09-01T06:21:19;17.50;56.80
14585;DHT22;7379;51.506;11.876;2022-09-01T06:23:47;17.50;56.90
14585;DHT22;7379;51.506;11.876;2022-09-01T06:26:17;17.50;56.90
14585;DHT22;7379;51.506;11.876;2022-09-01T06:28:45;17.50;57.00
14585;DHT22;7379;51.506;11.876;2022-09-01T06:31:13;17.50;57.00
14585;DHT22;7379;51.506;11.876;2022-09-01T06:33:39;17.40;56.90
14585;DHT22;7379;51.506;11.876;2022-09-01T06:36:07;17.40;56.90
14585;DHT22;7379;51.506;11.876;2022-09-01T06:38:35;17.40;57.00
14585;DHT22;7379;51.506;11.876;2022-09-01T06:41:03;17.50;57.10
14585;DHT22;7379;51.506;11.876;2022-09-01T06:43:31;17.40;57.10
14585;DHT22;7379;51.506;11.876;2022-09-01T06:46:00;17.40;57.10
14585;DHT22;7379;51.506;11.876;2022-09-01T06:48:28;17.40;57.10
14585;DHT22;7379;51.506;11.876;2022-09-01T06:50:58;17.40;57.10
14585;DHT22;7379;51.506;11.876;2022-09-01T06:53:28;17.40;57.20
14585;DHT22;7379;51.506;11.876;2022-09-01T06:55:55;17.40;57.20
14585;DHT22;7379;51.506;11.876;2022-09-01T06:58:22;17.40;57.30
14585;DHT22;7379;51.506;11.876;2022-09-01T07:00:51;17.40;57.30
14585;DHT22;7379;51.506;11.876;2022-09-01T07:03:17;17.40;57.30
14585;DHT22;7379;51.506;11.876;2022-09-01T07:05:46;17.40;57.40
14585;DHT22;7379;51.506;11.876;2022-09-01T07:08:15;17.40;57.40
14585;DHT22;7379;51.506;11.876;2022-09-01T07:10:46;17.40;57.40
14585;DHT22;7379;51.506;11.876;2022-09-01T07:13:15;17.40;57.40
14585;DHT22;7379;51.506;11.876;2022-09-01T07:15:45;17.40;57.40
14585;DHT22;7379;51.506;11.876;2022-09-01T07:18:16;17.40;57.40
14585;DHT22;7379;51.506;11.876;2022-09-01T07:20:43;17.40;57.40
14585;DHT22;7379;51.506;11.876;2022-09-01T07:23:13;17.40;57.40
14585;DHT22;7379;51.506;11.876;2022-09-01T07:25:43;17.40;57.50
14585;DHT22;7379;51.506;11.876;2022-09-01T07:28:10;17.40;57.50
14585;DHT22;7379;51.506;11.876;2022-09-01T07:30:41;17.40;57.80
14585;DHT22;7379;51.506;11.876;2022-09-01T07:33:10;17.40;57.90
14585;DHT22;7379;51.506;11.876;2022-09-01T07:35:40;17.40;57.90
14585;DHT22;7379;51.506;11.876;2022-09-01T07:38:07;17.40;57.90
14585;DHT22;7379;51.506;11.876;2022-09-01T07:40:35;17.40;57.80
14585;DHT22;7379;51.506;11.876;2022-09-01T07:43:04;17.40;57.80
14585;DHT22;7379;51.506;11.876;2022-09-01T07:45:33;17.40;57.70
14585;DHT22;7379;51.506;11.876;2022-09-01T07:48:02;17.40;57.70
14585;DHT22;7379;51.506;11.876;2022-09-01T07:50:31;17.40;57.70
14585;DHT22;7379;51.506;11.876;2022-09-01T07:52:59;17.40;57.80
14585;DHT22;7379;51.506;11.876;2022-09-01T07:55:27;17.40;57.80
14585;DHT22;7379;51.506;11.876;2022-09-01T07:57:54;17.40;57.70
14585;DHT22;7379;51.506;11.876;2022-09-01T08:00:22;17.40;57.80
14585;DHT22;7379;51.506;11.876;2022-09-01T08:02:49;17.40;57.80
14585;DHT22;7379;51.506;11.876;2022-09-01T08:05:17;17.50;57.90
14585;DHT22;7379;51.506;11.876;2022-09-01T08:07:47;17.50;57.90
14585;DHT22;7379;51.506;11.876;2022-09-01T08:10:15;17.50;57.90
14585;DHT22;7379;51.506;11.876;2022-09-01T08:12:42;17.50;57.90
14585;DHT22;7379;51.506;11.876;2022-09-01T08:15:09;17.50;57.80
14585;DHT22;7379;51.506;11.876;2022-09-01T08:17:37;17.50;57.80
14585;DHT22;7379;51.506;11.876;2022-09-01T08:20:05;17.50;57.90
14585;DHT22;7379;51.506;11.876;2022-09-01T08:22:33;17.50;57.90
14585;DHT22;7379;51.506;11.876;2022-09-01T08:25:02;17.50;57.90
14585;DHT22;7379;51.506;11.876;2022-09-01T08:27:32;17.50;57.90
14585;DHT22;7379;51.506;11.876;2022-09-01T08:30:01;17.50;57.80
14585;DHT22;7379;51.506;11.876;2022-09-01T08:32:29;17.50;57.80
14585;DHT22;7379;51.506;11.876;2022-09-01T08:34:56;17.50;57.90
14585;DHT22;7379;51.506;11.876;2022-09-01T08:37:23;17.60;58.00
14585;DHT22;7379;51.506;11.876;2022-09-01T08:39:51;17.60;57.90
14585;DHT22;7379;51.506;11.876;2022-09-01T08:42:24;17.60;57.90
14585;DHT22;7379;51.506;11.876;2022-09-01T08:45:02;17.60;57.90
14585;DHT22;7379;51.506;11.876;2022-09-01T08:47:29;17.60;57.90
14585;DHT22;7379;51.506;11.876;2022-09-01T08:49:57;17.60;57.90
14585;DHT22;7379;51.506;11.876;2022-09-01T08:52:29;17.60;57.80
14585;DHT22;7379;51.506;11.876;2022-09-01T08:54:59;17.60;57.80
14585;DHT22;7379;51.506;11.876;2022-09-01T08:57:32;17.60;57.80
14585;DHT22;7379;51.506;11.876;2022-09-01T09:00:00;17.60;58.40
14585;DHT22;7379;51.506;11.876;2022-09-01T09:02:39;17.60;57.80
14585;DHT22;7379;51.506;11.876;2022-09-01T09:05:25;17.60;57.80
14585;DHT22;7379;51.506;11.876;2022-09-01T09:08:11;17.70;57.90
14585;DHT22;7379;51.506;11.876;2022-09-01T09:10:47;17.70;57.90
14585;DHT22;7379;51.506;11.876;2022-09-01T09:13:21;17.70;57.90
14585;DHT22;7379;51.506;11.876;2022-09-01T09:15:54;17.70;57.90
14585;DHT22;7379;51.506;11.876;2022-09-01T09:18:32;17.80;58.10
14585;DHT22;7379;51.506;11.876;2022-09-01T09:21:07;17.80;58.00
14585;DHT22;7379;51.506;11.876;2022-09-01T09:23:40;17.80;58.10
14585;DHT22;7379;51.506;11.876;2022-09-01T09:26:07;17.80;57.90
14585;DHT22;7379;51.506;11.876;2022-09-01T09:28:34;17.90;57.90
14585;DHT22;7379;51.506;11.876;2022-09-01T09:31:31;17.90;57.80
14585;DHT22;7379;51.506;11.876;2022-09-01T09:33:59;17.90;57.80
14585;DHT22;7379;51.506;11.876;2022-09-01T09:36:32;17.90;57.80
14585;DHT22;7379;51.506;11.876;2022-09-01T09:39:09;17.90;57.50
14585;DHT22;7379;51.506;11.876;2022-09-01T09:41:37;18.00;57.60
14585;DHT22;7379;51.506;11.876;2022-09-01T09:44:14;18.00;57.50
14585;DHT22;7379;51.506;11.876;2022-09-01T09:46:45;18.00;57.30
14585;DHT22;7379;51.506;11.876;2022-09-01T09:49:15;18.00;57.30
14585;DHT22;7379;51.506;11.876;2022-09-01T09:51:46;18.00;57.20
14585;DHT22;7379;51.506;11.876;2022-09-01T09:54:17;18.10;57.20
14585;DHT22;7379;51.506;11.876;2022-09-01T09:56:46;18.10;57.30
14585;DHT22;7379;51.506;11.876;2022-09-01T09:59:31;18.10;57.00
14585;DHT22;7379;51.506;11.876;2022-09-01T10:02:20;18.20;57.10
14585;DHT22;7379;51.506;11.876;2022-09-01T10:04:48;18.20;56.90
14585;DHT22;7379;51.506;11.876;2022-09-01T10:07:32;18.10;57.30
14585;DHT22;7379;51.506;11.876;2022-09-01T10:10:02;18.20;56.70
14585;DHT22;7379;51.506;11.876;2022-09-01T10:12:30;18.20;56.50
14585;DHT22;7379;51.506;11.876;2022-09-01T10:15:02;18.20;56.30
14585;DHT22;7379;51.506;11.876;2022-09-01T10:17:34;18.20;56.50
14585;DHT22;7379;51.506;11.876;2022-09-01T10:20:05;18.20;56.50
14585;DHT22;7379;51.506;11.876;2022-09-01T10:22:35;18.20;56.30
14585;DHT22;7379;51.506;11.876;2022-09-01T10:25:04;18.20;56.20
14585;DHT22;7379;51.506;11.876;2022-09-01T10:27:34;18.30;56.10
14585;DHT22;7379;51.506;11.876;2022-09-01T10:30:06;18.30;55.60
14585;DHT22;7379;51.506;11.876;2022-09-01T10:32:38;18.40;55.50
14585;DHT22;7379;51.506;11.876;2022-09-01T10:35:09;18.40;55.50
14585;DHT22;7379;51.506;11.876;2022-09-01T10:37:38;18.40;55.30
14585;DHT22;7379;51.506;11.876;2022-09-01T10:40:15;18.40;55.30
14585;DHT22;7379;51.506;11.876;2022-09-01T10:42:45;18.40;54.90
14585;DHT22;7379;51.506;11.876;2022-09-01T10:45:17;18.40;54.60
14585;DHT22;7379;51.506;11.876;2022-09-01T10:47:48;18.40;54.30
14585;DHT22;7379;51.506;11.876;2022-09-01T10:50:26;18.40;54.20
14585;DHT22;7379;51.506;11.876;2022-09-01T10:52:57;18.50;53.60
14585;DHT22;7379;51.506;11.876;2022-09-01T10:55:26;18.50;54.20
14585;DHT22;7379;51.506;11.876;2022-09-01T10:58:07;18.50;53.80
14585;DHT22;7379;51.506;11.876;2022-09-01T11:00:48;18.50;53.90
14585;DHT22;7379;51.506;11.876;2022-09-01T11:06:56;18.50;53.50
14585;DHT22;7379;51.506;11.876;2022-09-01T11:09:29;18.50;53.00
14585;DHT22;7379;51.506;11.876;2022-09-01T11:14:50;18.60;52.50
14585;DHT22;7379;51.506;11.876;2022-09-01T11:17:20;18.70;51.60
14585;DHT22;7379;51.506;11.876;2022-09-01T11:19:55;18.70;51.40
14585;DHT22;7379;51.506;11.876;2022-09-01T11:22:30;18.70;51.30
14585;DHT22;7379;51.506;11.876;2022-09-01T11:30:46;18.70;51.30
14585;DHT22;7379;51.506;11.876;2022-09-01T11:33:43;18.70;51.50
14585;DHT22;7379;51.506;11.876;2022-09-01T11:36:17;18.70;50.90
14585;DHT22;7379;51.506;11.876;2022-09-01T11:38:51;18.70;50.50
14585;DHT22;7379;51.506;11.876;2022-09-01T11:41:24;18.80;50.50
14585;DHT22;7379;51.506;11.876;2022-09-01T11:43:55;18.80;51.10
14585;DHT22;7379;51.506;11.876;2022-09-01T11:46:28;18.80;50.30
14585;DHT22;7379;51.506;11.876;2022-09-01T11:48:59;18.80;50.50
14585;DHT22;7379;51.506;11.876;2022-09-01T11:51:27;18.80;50.10
14585;DHT22;7379;51.506;11.876;2022-09-01T11:53:59;18.90;49.80
14585;DHT22;7379;51.506;11.876;2022-09-01T11:56:27;18.80;49.90
14585;DHT22;7379;51.506;11.876;2022-09-01T11:58:53;18.90;49.30
14585;DHT22;7379;51.506;11.876;2022-09-01T12:01:22;18.90;49.40
14585;DHT22;7379;51.506;11.876;2022-09-01T12:03:56;18.90;49.20
14585;DHT22;7379;51.506;11.876;2022-09-01T12:06:25;18.90;49.00
14585;DHT22;7379;51.506;11.876;2022-09-01T12:08:56;18.90;49.00
14585;DHT22;7379;51.506;11.876;2022-09-01T12:11:27;18.90;49.00
14585;DHT22;7379;51.506;11.876;2022-09-01T12:13:58;18.90;48.60
14585;DHT22;7379;51.506;11.876;2022-09-01T12:16:25;19.00;49.10
14585;DHT22;7379;51.506;11.876;2022-09-01T12:18:54;19.00;48.70
14585;DHT22;7379;51.506;11.876;2022-09-01T12:21:24;19.00;48.60
14585;DHT22;7379;51.506;11.876;2022-09-01T12:23:51;19.00;48.60
14585;DHT22;7379;51.506;11.876;2022-09-01T12:26:20;19.00;48.30
14585;DHT22;7379;51.506;11.876;2022-09-01T12:28:49;19.10;48.30
14585;DHT22;7379;51.506;11.876;2022-09-01T12:31:19;19.10;48.00
14585;DHT22;7379;51.506;11.876;2022-09-01T12:33:49;19.30;47.90
14585;DHT22;7379;51.506;11.876;2022-09-01T12:36:22;19.40;47.10
14585;DHT22;7379;51.506;11.876;2022-09-01T12:38:51;19.60;46.90
14585;DHT22;7379;51.506;11.876;2022-09-01T12:41:30;19.60;46.70
14585;DHT22;7379;51.506;11.876;2022-09-01T12:46:57;19.80;47.10
14585;DHT22;7379;51.506;11.876;2022-09-01T12:49:34;19.80;46.30
14585;DHT22;7379;51.506;11.876;2022-09-01T12:52:16;19.90;45.70
14585;DHT22;7379;51.506;11.876;2022-09-01T12:54:47;19.90;45.90
14585;DHT22;7379;51.506;11.876;2022-09-01T12:57:23;19.90;45.50
14585;DHT22;7379;51.506;11.876;2022-09-01T13:00:06;19.90;45.60
14585;DHT22;7379;51.506;11.876;2022-09-01T13:02:36;20.00;45.60
14585;DHT22;7379;51.506;11.876;2022-09-01T13:05:25;20.00;45.70
14585;DHT22;7379;51.506;11.876;2022-09-01T13:07:54;20.20;45.00
14585;DHT22;7379;51.506;11.876;2022-09-01T13:10:21;20.40;44.20
14585;DHT22;7379;51.506;11.876;2022-09-01T13:12:50;20.40;44.70
14585;DHT22;7379;51.506;11.876;2022-09-01T13:15:17;20.50;44.40
14585;DHT22;7379;51.506;11.876;2022-09-01T13:17:46;20.70;44.20
14585;DHT22;7379;51.506;11.876;2022-09-01T13:20:13;20.60;44.30
14585;DHT22;7379;51.506;11.876;2022-09-01T13:22:40;20.60;45.10
14585;DHT22;7379;51.506;11.876;2022-09-01T13:25:09;20.60;44.50
14585;DHT22;7379;51.506;11.876;2022-09-01T13:27:38;20.70;44.40
14585;DHT22;7379;51.506;11.876;2022-09-01T13:30:10;20.80;44.20
14585;DHT22;7379;51.506;11.876;2022-09-01T13:32:38;20.90;43.90
14585;DHT22;7379;51.506;11.876;2022-09-01T13:35:08;20.90;43.90
14585;DHT22;7379;51.506;11.876;2022-09-01T13:37:34;20.80;44.10
14585;DHT22;7379;51.506;11.876;2022-09-01T13:40:03;20.70;44.00
14585;DHT22;7379;51.506;11.876;2022-09-01T13:42:30;20.60;44.60
14585;DHT22;7379;51.506;11.876;2022-09-01T13:44:57;20.60;44.00
14585;DHT22;7379;51.506;11.876;2022-09-01T13:47:24;20.60;44.50
14585;DHT22;7379;51.506;11.876;2022-09-01T13:49:51;20.50;44.80
14585;DHT22;7379;51.506;11.876;2022-09-01T13:52:19;20.40;45.00
14585;DHT22;7379;51.506;11.876;2022-09-01T13:54:46;20.40;44.80
14585;DHT22;7379;51.506;11.876;2022-09-01T13:57:12;20.30;45.10
14585;DHT22;7379;51.506;11.876;2022-09-01T13:59:40;20.30;45.70
14585;DHT22;7379;51.506;11.876;2022-09-01T14:02:07;20.30;44.50
14585;DHT22;7379;51.506;11.876;2022-09-01T14:04:34;20.20;45.60
14585;DHT22;7379;51.506;11.876;2022-09-01T14:07:01;20.20;45.40
14585;DHT22;7379;51.506;11.876;2022-09-01T14:09:29;20.20;45.00
14585;DHT22;7379;51.506;11.876;2022-09-01T14:11:56;20.20;45.20
14585;DHT22;7379;51.506;11.876;2022-09-01T14:14:23;20.20;44.90
14585;DHT22;7379;51.506;11.876;2022-09-01T14:16:50;20.20;44.90
14585;DHT22;7379;51.506;11.876;2022-09-01T14:19:17;20.20;44.90
14585;DHT22;7379;51.506;11.876;2022-09-01T14:21:44;20.30;45.30
14585;DHT22;7379;51.506;11.876;2022-09-01T14:24:11;20.20;44.50
14585;DHT22;7379;51.506;11.876;2022-09-01T14:26:40;20.20;44.90
14585;DHT22;7379;51.506;11.876;2022-09-01T14:29:07;20.20;45.10
14585;DHT22;7379;51.506;11.876;2022-09-01T14:31:34;20.20;45.20
14585;DHT22;7379;51.506;11.876;2022-09-01T14:34:02;20.20;45.70
14585;DHT22;7379;51.506;11.876;2022-09-01T14:36:29;20.20;45.40
14585;DHT22;7379;51.506;11.876;2022-09-01T14:38:56;20.20;45.60
14585;DHT22;7379;51.506;11.876;2022-09-01T14:41:24;20.20;44.80
14585;DHT22;7379;51.506;11.876;2022-09-01T14:43:52;20.30;44.60
14585;DHT22;7379;51.506;11.876;2022-09-01T14:46:22;20.30;44.80
14585;DHT22;7379;51.506;11.876;2022-09-01T14:48:49;20.30;45.20
14585;DHT22;7379;51.506;11.876;2022-09-01T14:51:21;20.50;44.50
14585;DHT22;7379;51.506;11.876;2022-09-01T14:53:50;20.60;44.80
14585;DHT22;7379;51.506;11.876;2022-09-01T14:56:17;20.70;44.50
14585;DHT22;7379;51.506;11.876;2022-09-01T14:58:44;20.90;44.30
14585;DHT22;7379;51.506;11.876;2022-09-01T15:01:14;21.10;43.60
14585;DHT22;7379;51.506;11.876;2022-09-01T15:03:42;21.20;44.00
14585;DHT22;7379;51.506;11.876;2022-09-01T15:06:10;21.30;43.70
14585;DHT22;7379;51.506;11.876;2022-09-01T15:08:38;21.30;43.90
14585;DHT22;7379;51.506;11.876;2022-09-01T15:11:07;21.40;43.90
14585;DHT22;7379;51.506;11.876;2022-09-01T15:13:35;21.50;43.50
14585;DHT22;7379;51.506;11.876;2022-09-01T15:16:02;21.60;43.50
14585;DHT22;7379;51.506;11.876;2022-09-01T15:18:31;21.70;43.60
14585;DHT22;7379;51.506;11.876;2022-09-01T15:20:58;21.70;43.30
14585;DHT22;7379;51.506;11.876;2022-09-01T15:23:25;21.90;43.10
14585;DHT22;7379;51.506;11.876;2022-09-01T15:25:53;22.00;42.40
14585;DHT22;7379;51.506;11.876;2022-09-01T15:28:20;22.20;42.40
14585;DHT22;7379;51.506;11.876;2022-09-01T15:30:47;22.30;42.10
14585;DHT22;7379;51.506;11.876;2022-09-01T15:33:14;22.30;42.00
14585;DHT22;7379;51.506;11.876;2022-09-01T15:35:43;22.40;41.90
14585;DHT22;7379;51.506;11.876;2022-09-01T15:38:11;22.40;41.90
14585;DHT22;7379;51.506;11.876;2022-09-01T15:40:39;22.30;41.90
14585;DHT22;7379;51.506;11.876;2022-09-01T15:43:06;22.50;41.50
14585;DHT22;7379;51.506;11.876;2022-09-01T15:45:33;22.60;41.60
14585;DHT22;7379;51.506;11.876;2022-09-01T15:48:00;22.70;41.20
14585;DHT22;7379;51.506;11.876;2022-09-01T15:50:27;22.80;40.90
14585;DHT22;7379;51.506;11.876;2022-09-01T15:52:57;22.90;40.90
14585;DHT22;7379;51.506;11.876;2022-09-01T15:55:27;22.80;41.10
14585;DHT22;7379;51.506;11.876;2022-09-01T15:57:55;22.80;40.90
14585;DHT22;7379;51.506;11.876;2022-09-01T16:00:27;22.60;41.00